Birsay, Canada
Current Conditions -  °F | °C
As of 1:00 AM on Saturday 25 Oct 2014 (Local Time) from CYYN Reporting Station
Clear Clear  
Wind Chill: 24°   Ceiling: Unl
Heat Index: 32°   Visibility: 9mi
Dew Point: 27°   Wind: 10mph
Humidity: 80%   Direction: 220°SW
Pressure: 30.03"   Gusts: NA
Location:  51.1°N, 106.98°W
Report Text: CYYN 250700Z AUTO 22009KT 9SM CLR 00/M03 A3003 RMK SLP190
Loading
Personal Weather Stations






























Interactive Weather Map
Tropical Storm Tracking
New forecast layout! Learn more

10-Day Weather Forecast

Advertisements
Track Severe Weather on mobile